Time;durP1;ratioP1;P1;durP2;ratioP2;P2;SDS_P1;SDS_P2;PMS_P1;PMS_P2;Temp;Humidity;BMP_temperature;BMP_pressure;BME280_temperature;BME280_humidity;BME280_pressure;Samples;Min_cycle;Max_cycle;Signal;HPM_P1;HPM_P2
2023/04/01 01:05:51;;;;;;;0.82;0.30;;;8.00;99.90;;;;;;4985161;28;20245;-69
2023/04/01 01:08:41;;;;;;;3.13;0.60;;;8.00;99.90;;;;;;4982044;28;20199;-70
2023/04/01 01:11:17;;;;;;;0.52;0.50;;;8.10;99.90;;;;;;4986106;28;20218;-71
2023/04/01 01:14:04;;;;;;;1.00;0.33;;;8.10;99.90;;;;;;4987703;28;20268;-72
2023/04/01 01:16:41;;;;;;;2.25;0.52;;;8.10;99.90;;;;;;4986722;28;20664;-70
2023/04/01 01:19:38;;;;;;;0.40;0.20;;;8.10;99.90;;;;;;4986762;28;20205;-71
2023/04/01 01:22:39;;;;;;;0.30;0.22;;;8.00;99.90;;;;;;4987374;28;20655;-70
2023/04/01 01:25:43;;;;;;;0.40;0.40;;;8.10;99.90;;;;;;4976811;28;20229;-72
2023/04/01 01:28:29;;;;;;;0.30;0.20;;;8.00;99.90;;;;;;4986287;28;20219;-72
2023/04/01 01:31:04;;;;;;;0.88;0.57;;;8.00;99.90;;;;;;4987414;28;20222;-70
2023/04/01 01:33:57;;;;;;;0.30;0.20;;;8.10;99.90;;;;;;4987353;28;20193;-70
2023/04/01 01:36:39;;;;;;;0.60;0.30;;;8.10;99.90;;;;;;4986950;28;20328;-72
2023/04/01 01:39:09;;;;;;;0.30;0.20;;;8.00;99.90;;;;;;4986746;28;20220;-70
2023/04/01 01:41:42;;;;;;;0.50;0.30;;;8.00;99.90;;;;;;4987539;28;20313;-70
2023/04/01 01:44:26;;;;;;;0.30;0.10;;;8.00;99.90;;;;;;4991140;28;20291;-72
2023/04/01 10:16:35;;;;;;;0.40;0.20;;;9.10;99.90;;;;;;4986504;28;20736;-70
2023/04/01 10:19:42;;;;;;;0.30;0.20;;;9.10;99.90;;;;;;4981520;28;20309;-72
2023/04/01 10:22:56;;;;;;;0.30;0.20;;;9.20;99.90;;;;;;4989508;28;20771;-72
2023/04/01 10:26:17;;;;;;;0.30;0.20;;;9.60;99.90;;;;;;4984902;28;20684;-72
2023/04/01 10:29:14;;;;;;;0.30;0.20;;;9.40;99.90;;;;;;4989570;28;20651;-71
2023/04/01 10:32:15;;;;;;;0.30;0.10;;;9.50;99.90;;;;;;4990756;28;20730;-70
2023/04/01 10:35:30;;;;;;;0.30;0.20;;;9.80;99.90;;;;;;4987082;28;20624;-71
2023/04/01 10:38:33;;;;;;;0.57;0.30;;;10.00;99.90;;;;;;4990806;28;20635;-71
2023/04/01 10:41:32;;;;;;;0.50;0.30;;;10.10;99.20;;;;;;4990785;28;20752;-71
2023/04/01 10:44:37;;;;;;;0.40;0.30;;;10.10;98.60;;;;;;4990560;28;20632;-71
2023/04/01 10:47:32;;;;;;;0.30;0.20;;;10.20;98.30;;;;;;4990441;28;20655;-71
2023/04/01 10:50:25;;;;;;;0.30;0.23;;;10.30;98.20;;;;;;4989285;28;20620;-71
2023/04/01 10:53:16;;;;;;;0.30;0.20;;;10.60;99.90;;;;;;4989247;28;20641;-71
2023/04/01 10:56:19;;;;;;;0.40;0.20;;;10.70;97.20;;;;;;4983347;28;20641;-71
2023/04/01 10:59:28;;;;;;;0.30;0.20;;;10.70;96.70;;;;;;4989985;28;20641;-73
2023/04/01 11:02:32;;;;;;;0.40;0.20;;;10.80;96.30;;;;;;4940891;28;21533;-72
2023/04/01 11:05:43;;;;;;;0.50;0.50;;;10.80;96.30;;;;;;4986269;28;20687;-71
2023/04/01 11:08:54;;;;;;;0.30;0.20;;;10.60;96.00;;;;;;4970671;28;20703;-71
2023/04/01 11:12:14;;;;;;;0.30;0.20;;;10.60;96.20;;;;;;4989679;28;21245;-71
2023/04/01 11:15:30;;;;;;;0.30;0.20;;;10.60;96.10;;;;;;4894615;29;20640;-71
2023/04/01 11:18:32;;;;;;;0.30;0.20;;;10.50;97.00;;;;;;4945164;28;20695;-71
2023/04/01 11:22:04;;;;;;;0.30;0.20;;;10.60;96.80;;;;;;4989586;28;20663;-71
2023/04/01 11:25:06;;;;;;;0.30;0.20;;;10.60;96.60;;;;;;4862384;29;20750;-71
2023/04/01 11:28:11;;;;;;;0.30;0.20;;;10.80;95.70;;;;;;4989175;28;20629;-72
2023/04/01 11:30:59;;;;;;;0.30;0.20;;;10.80;95.60;;;;;;4960393;28;20712;-71
2023/04/01 11:33:36;;;;;;;0.30;0.17;;;10.80;95.20;;;;;;4986407;28;20724;-72
2023/04/01 11:36:21;;;;;;;0.30;0.20;;;10.80;95.70;;;;;;4990350;28;20681;-71
2023/04/01 11:39:03;;;;;;;0.30;0.10;;;10.80;95.50;;;;;;4988746;28;20617;-70
2023/04/01 11:41:42;;;;;;;0.30;0.20;;;10.80;95.50;;;;;;4988278;28;20657;-71
2023/04/01 11:44:22;;;;;;;0.40;0.20;;;10.80;95.30;;;;;;4987301;28;20613;-70
2023/04/01 11:47:15;;;;;;;0.30;0.20;;;10.80;95.10;;;;;;4988119;28;20685;-70
2023/04/01 11:49:54;;;;;;;0.30;0.23;;;10.90;94.40;;;;;;4987134;28;20672;-70
2023/04/01 11:52:36;;;;;;;0.30;0.10;;;11.10;94.40;;;;;;4987081;28;21601;-70
2023/04/01 11:55:15;;;;;;;0.30;0.20;;;11.50;99.30;;;;;;4988354;28;20624;-71
2023/04/01 11:58:06;;;;;;;0.60;0.20;;;10.80;98.40;;;;;;4987642;28;20724;-72
2023/04/01 12:00:50;;;;;;;0.30;0.20;;;10.80;99.30;;;;;;4988252;28;21075;-71
2023/04/01 12:03:47;;;;;;;0.40;0.30;;;10.70;94.70;;;;;;4989668;28;20640;-71
2023/04/01 12:06:22;;;;;;;0.30;0.10;;;10.50;95.10;;;;;;4988715;28;20756;-71
2023/04/01 12:08:56;;;;;;;0.30;0.20;;;10.40;95.00;;;;;;4988735;28;20627;-73
2023/04/01 12:11:31;;;;;;;0.30;0.20;;;10.40;95.30;;;;;;4988680;28;20651;-71
2023/04/01 12:21:35;;;;;;;0.40;0.33;;;10.50;95.70;;;;;;4986361;28;20661;-71
2023/04/01 12:24:37;;;;;;;2.00;0.17;;;10.60;96.70;;;;;;4988974;28;20628;-71
2023/04/01 12:27:23;;;;;;;1.90;0.63;;;10.60;96.90;;;;;;4987568;28;20679;-70
2023/04/01 12:30:19;;;;;;;0.30;0.20;;;10.50;96.10;;;;;;4986829;28;20613;-70
2023/04/01 12:32:56;;;;;;;0.37;0.17;;;10.40;96.00;;;;;;4969050;28;21183;-71
2023/04/01 12:35:28;;;;;;;0.50;0.30;;;10.50;95.90;;;;;;4988180;28;20644;-70
2023/04/01 12:38:17;;;;;;;0.30;0.20;;;10.80;96.50;;;;;;4987870;28;21221;-69
2023/04/01 12:41:03;;;;;;;1.27;0.50;;;11.00;95.80;;;;;;4986919;28;21085;-69
2023/04/01 12:44:06;;;;;;;0.30;0.20;;;11.10;96.00;;;;;;4988037;28;21233;-69
2023/04/01 12:46:42;;;;;;;0.63;0.30;;;11.20;95.10;;;;;;4955860;28;20679;-70
2023/04/01 12:49:51;;;;;;;0.40;0.20;;;11.40;94.60;;;;;;4987036;28;20640;-70
2023/04/01 12:52:26;;;;;;;0.30;0.20;;;11.50;94.40;;;;;;4949744;28;20661;-70
2023/04/01 12:55:24;;;;;;;0.30;0.20;;;11.50;94.30;;;;;;4986905;28;21452;-70
2023/04/01 12:58:27;;;;;;;0.30;0.20;;;11.70;93.80;;;;;;4982726;28;20634;-70
2023/04/01 13:01:10;;;;;;;0.30;0.20;;;11.70;93.40;;;;;;4914577;28;20660;-71
2023/04/01 13:04:13;;;;;;;0.30;0.20;;;11.70;93.60;;;;;;4987919;28;20636;-70
2023/04/01 13:06:54;;;;;;;0.30;0.20;;;11.80;92.80;;;;;;4987465;28;20683;-70
2023/04/01 13:09:37;;;;;;;0.30;0.20;;;11.80;93.00;;;;;;4986657;28;21256;-70
2023/04/01 14:04:45;;;;;;;0.30;0.17;;;11.50;92.70;;;;;;4995637;28;20806;-69
2023/04/01 14:07:27;;;;;;;0.30;0.23;;;11.60;92.90;;;;;;4995754;28;20680;-70
2023/04/01 14:10:14;;;;;;;0.30;0.20;;;11.60;93.20;;;;;;4989647;28;20740;-70
2023/04/01 14:12:48;;;;;;;0.40;0.30;;;11.70;93.00;;;;;;4991572;28;20628;-69
2023/04/01 14:15:38;;;;;;;0.70;0.20;;;11.50;93.30;;;;;;4990519;28;20621;-69
2023/04/01 14:18:33;;;;;;;0.40;0.30;;;11.50;93.30;;;;;;4989186;28;20641;-70
2023/04/01 14:21:14;;;;;;;0.30;0.20;;;11.30;93.40;;;;;;4989835;28;21004;-69
2023/04/01 14:24:03;;;;;;;0.40;0.20;;;11.20;94.10;;;;;;4990764;28;20643;-69
2023/04/01 14:26:57;;;;;;;0.40;0.33;;;11.60;97.90;;;;;;4987495;28;20681;-69
2023/04/01 14:29:32;;;;;;;0.30;0.20;;;11.30;94.30;;;;;;4988370;28;21235;-69
2023/04/01 14:35:50;;;;;;;0.30;0.20;;;10.90;93.70;;;;;;4991712;28;20553;-70
2023/04/01 14:38:36;;;;;;;1.13;0.30;;;10.80;95.00;;;;;;4989280;28;20637;-70
2023/04/01 14:41:13;;;;;;;0.57;0.57;;;11.00;95.10;;;;;;4979572;28;21028;-69
2023/04/01 14:43:55;;;;;;;0.30;0.30;;;11.00;94.80;;;;;;4991072;28;20625;-70
2023/04/01 14:46:50;;;;;;;0.30;0.20;;;11.00;94.50;;;;;;4987861;28;20664;-69
2023/04/01 14:49:22;;;;;;;0.40;0.30;;;10.90;94.20;;;;;;4989650;28;21213;-70
2023/04/01 14:51:51;;;;;;;0.40;0.20;;;10.70;93.50;;;;;;4990793;28;20660;-69
2023/04/01 14:54:30;;;;;;;0.30;0.20;;;10.80;94.50;;;;;;4990537;28;20688;-69
2023/04/01 14:57:10;;;;;;;0.30;0.20;;;10.80;93.90;;;;;;4990430;28;20652;-69
2023/04/01 14:59:41;;;;;;;0.57;0.40;;;10.80;93.80;;;;;;4989138;28;20992;-70
2023/04/01 15:02:30;;;;;;;0.30;0.20;;;10.70;94.10;;;;;;4990138;28;20664;-69
2023/04/01 15:05:07;;;;;;;0.57;0.30;;;10.90;95.00;;;;;;4987561;28;20967;-69
2023/04/01 15:08:02;;;;;;;0.30;0.20;;;10.90;94.30;;;;;;4989056;28;20682;-69
2023/04/01 15:10:55;;;;;;;0.30;0.20;;;10.90;94.50;;;;;;4990416;28;20660;-69
2023/04/01 15:13:49;;;;;;;0.30;0.10;;;11.00;94.20;;;;;;4973708;28;20629;-69
2023/04/01 15:16:26;;;;;;;0.30;0.20;;;10.80;93.80;;;;;;4985167;28;20663;-70
2023/04/01 15:19:02;;;;;;;0.30;0.20;;;10.60;97.60;;;;;;4988072;28;20715;-71
2023/04/01 15:21:45;;;;;;;0.30;0.20;;;10.70;94.30;;;;;;4992491;28;20710;-69
2023/04/01 15:24:18;;;;;;;0.40;0.20;;;10.60;94.40;;;;;;4991062;28;20629;-69
2023/04/01 15:27:21;;;;;;;0.40;0.20;;;10.60;94.30;;;;;;4986177;28;20673;-70
2023/04/01 16:03:20;;;;;;;0.30;0.20;;;10.40;94.50;;;;;;4985372;28;20600;-70
2023/04/01 18:08:25;;;;;;;0.40;0.30;;;9.60;98.00;;;;;;4983910;28;20756;-69
2023/04/01 18:11:05;;;;;;;0.80;0.70;;;9.60;99.60;;;;;;4985112;28;20668;-69
2023/04/01 19:21:04;;;;;;;0.30;0.30;;;8.00;99.90;;;;;;5008943;28;20205;-70
2023/04/01 19:24:09;;;;;;;0.50;0.50;;;7.70;99.90;;;;;;4987033;28;20592;-69
